sensor_id;sensor_type;location;lat;lon;timestamp;temperature;humidity
64924;HTU21D;51436;44.692;39.214;2024-01-15T00:01:43;3.47;68.46
64924;HTU21D;51436;44.692;39.214;2024-01-15T00:04:13;3.49;68.43
64924;HTU21D;51436;44.692;39.214;2024-01-15T00:18:02;3.42;68.55
64924;HTU21D;51436;44.692;39.214;2024-01-15T00:20:29;3.40;68.62
64924;HTU21D;51436;44.692;39.214;2024-01-15T00:22:56;3.41;68.62
64924;HTU21D;51436;44.692;39.214;2024-01-15T00:25:22;3.41;68.61
64924;HTU21D;51436;44.692;39.214;2024-01-15T00:27:49;3.43;68.58
64924;HTU21D;51436;44.692;39.214;2024-01-15T00:30:16;3.45;68.57
64924;HTU21D;51436;44.692;39.214;2024-01-15T00:32:42;3.50;68.46
64924;HTU21D;51436;44.692;39.214;2024-01-15T00:35:09;3.53;68.40
64924;HTU21D;51436;44.692;39.214;2024-01-15T00:37:35;3.55;68.36
64924;HTU21D;51436;44.692;39.214;2024-01-15T00:40:01;3.57;68.37
64924;HTU21D;51436;44.692;39.214;2024-01-15T00:42:28;3.56;68.39
64924;HTU21D;51436;44.692;39.214;2024-01-15T00:44:54;3.59;68.36
64924;HTU21D;51436;44.692;39.214;2024-01-15T00:47:20;3.67;68.22
64924;HTU21D;51436;44.692;39.214;2024-01-15T00:49:47;3.70;68.16
64924;HTU21D;51436;44.692;39.214;2024-01-15T00:52:13;3.70;68.18
64924;HTU21D;51436;44.692;39.214;2024-01-15T00:54:40;3.72;68.16
64924;HTU21D;51436;44.692;39.214;2024-01-15T00:57:06;3.76;68.09
64924;HTU21D;51436;44.692;39.214;2024-01-15T00:59:32;3.78;68.06
64924;HTU21D;51436;44.692;39.214;2024-01-15T01:01:59;3.78;68.06
64924;HTU21D;51436;44.692;39.214;2024-01-15T01:04:25;3.82;68.04
64924;HTU21D;51436;44.692;39.214;2024-01-15T01:06:51;3.83;68.01
64924;HTU21D;51436;44.692;39.214;2024-01-15T01:09:17;3.88;67.97
64924;HTU21D;51436;44.692;39.214;2024-01-15T01:11:44;3.92;67.87
64924;HTU21D;51436;44.692;39.214;2024-01-15T01:14:10;3.92;67.84
64924;HTU21D;51436;44.692;39.214;2024-01-15T01:16:36;3.95;67.83
64924;HTU21D;51436;44.692;39.214;2024-01-15T01:19:06;4.00;67.75
64924;HTU21D;51436;44.692;39.214;2024-01-15T01:21:33;4.01;67.76
64924;HTU21D;51436;44.692;39.214;2024-01-15T01:23:59;4.00;67.81
64924;HTU21D;51436;44.692;39.214;2024-01-15T01:26:26;4.00;67.81
64924;HTU21D;51436;44.692;39.214;2024-01-15T01:28:52;4.00;67.81
64924;HTU21D;51436;44.692;39.214;2024-01-15T01:31:18;3.98;67.86
64924;HTU21D;51436;44.692;39.214;2024-01-15T01:33:45;3.94;67.93
64924;HTU21D;51436;44.692;39.214;2024-01-15T01:36:11;3.93;67.97
64924;HTU21D;51436;44.692;39.214;2024-01-15T01:38:38;3.97;67.95
64924;HTU21D;51436;44.692;39.214;2024-01-15T01:41:22;3.98;67.85
64924;HTU21D;51436;44.692;39.214;2024-01-15T01:43:53;3.94;67.91
64924;HTU21D;51436;44.692;39.214;2024-01-15T01:46:19;3.91;68.01
64924;HTU21D;51436;44.692;39.214;2024-01-15T01:48:46;3.94;67.96
64924;HTU21D;51436;44.692;39.214;2024-01-15T01:51:12;4.00;67.87
64924;HTU21D;51436;44.692;39.214;2024-01-15T01:53:39;4.03;67.78
64924;HTU21D;51436;44.692;39.214;2024-01-15T01:56:06;4.03;67.78
64924;HTU21D;51436;44.692;39.214;2024-01-15T01:58:33;3.99;67.89
64924;HTU21D;51436;44.692;39.214;2024-01-15T02:01:00;3.92;68.02
64924;HTU21D;51436;44.692;39.214;2024-01-15T02:03:27;3.88;68.11
64924;HTU21D;51436;44.692;39.214;2024-01-15T02:05:54;3.83;68.21
64924;HTU21D;51436;44.692;39.214;2024-01-15T02:08:21;3.76;68.33
64924;HTU21D;51436;44.692;39.214;2024-01-15T02:10:48;3.72;68.40
64924;HTU21D;51436;44.692;39.214;2024-01-15T02:13:14;3.68;68.49
64924;HTU21D;51436;44.692;39.214;2024-01-15T02:15:41;3.62;68.57
64924;HTU21D;51436;44.692;39.214;2024-01-15T02:18:07;3.55;68.68
64924;HTU21D;51436;44.692;39.214;2024-01-15T02:20:36;3.49;68.75
64924;HTU21D;51436;44.692;39.214;2024-01-15T02:23:09;3.46;68.83
64924;HTU21D;51436;44.692;39.214;2024-01-15T02:25:38;3.42;68.91
64924;HTU21D;51436;44.692;39.214;2024-01-15T02:28:06;3.40;68.97
64924;HTU21D;51436;44.692;39.214;2024-01-15T02:30:37;3.35;69.00
64924;HTU21D;51436;44.692;39.214;2024-01-15T02:33:06;3.33;69.10
64924;HTU21D;51436;44.692;39.214;2024-01-15T02:35:33;3.32;69.11
64924;HTU21D;51436;44.692;39.214;2024-01-15T02:37:59;3.31;69.15
64924;HTU21D;51436;44.692;39.214;2024-01-15T02:40:26;3.30;69.16
64924;HTU21D;51436;44.692;39.214;2024-01-15T02:42:52;3.30;69.16
64924;HTU21D;51436;44.692;39.214;2024-01-15T02:45:19;3.29;69.14
64924;HTU21D;51436;44.692;39.214;2024-01-15T02:47:46;3.29;69.15
64924;HTU21D;51436;44.692;39.214;2024-01-15T02:50:12;3.29;69.15
64924;HTU21D;51436;44.692;39.214;2024-01-15T02:52:39;3.31;69.11
64924;HTU21D;51436;44.692;39.214;2024-01-15T02:55:20;3.32;69.03
64924;HTU21D;51436;44.692;39.214;2024-01-15T02:57:49;3.36;69.00
64924;HTU21D;51436;44.692;39.214;2024-01-15T03:00:19;3.36;68.97
64924;HTU21D;51436;44.692;39.214;2024-01-15T03:02:45;3.36;69.02
64924;HTU21D;51436;44.692;39.214;2024-01-15T03:05:20;3.38;69.05
64924;HTU21D;51436;44.692;39.214;2024-01-15T03:07:50;3.36;69.08
64924;HTU21D;51436;44.692;39.214;2024-01-15T03:10:16;3.38;69.12
64924;HTU21D;51436;44.692;39.214;2024-01-15T03:12:42;3.40;69.13
64924;HTU21D;51436;44.692;39.214;2024-01-15T03:15:09;3.42;69.13
64924;HTU21D;51436;44.692;39.214;2024-01-15T03:17:35;3.44;69.13
64924;HTU21D;51436;44.692;39.214;2024-01-15T03:20:02;3.46;69.11
64924;HTU21D;51436;44.692;39.214;2024-01-15T03:22:29;3.46;69.13
64924;HTU21D;51436;44.692;39.214;2024-01-15T03:24:55;3.47;69.14
64924;HTU21D;51436;44.692;39.214;2024-01-15T03:27:21;3.48;69.16
64924;HTU21D;51436;44.692;39.214;2024-01-15T03:29:48;3.48;69.16
64924;HTU21D;51436;44.692;39.214;2024-01-15T03:32:14;3.45;69.23
64924;HTU21D;51436;44.692;39.214;2024-01-15T03:34:45;3.42;69.31
64924;HTU21D;51436;44.692;39.214;2024-01-15T03:37:13;3.42;69.36
64924;HTU21D;51436;44.692;39.214;2024-01-15T03:39:39;3.40;69.36
64924;HTU21D;51436;44.692;39.214;2024-01-15T03:42:06;3.32;69.49
64924;HTU21D;51436;44.692;39.214;2024-01-15T03:44:33;3.34;69.52
64924;HTU21D;51436;44.692;39.214;2024-01-15T03:58:23;3.71;68.78
64924;HTU21D;51436;44.692;39.214;2024-01-15T04:00:58;3.75;68.71
64924;HTU21D;51436;44.692;39.214;2024-01-15T04:03:24;3.75;68.76
64924;HTU21D;51436;44.692;39.214;2024-01-15T04:05:54;3.76;68.81
64924;HTU21D;51436;44.692;39.214;2024-01-15T04:08:22;3.83;68.74
64924;HTU21D;51436;44.692;39.214;2024-01-15T04:10:48;3.82;68.76
64924;HTU21D;51436;44.692;39.214;2024-01-15T04:13:14;3.84;68.76
64924;HTU21D;51436;44.692;39.214;2024-01-15T04:15:41;3.82;68.81
64924;HTU21D;51436;44.692;39.214;2024-01-15T04:18:07;3.83;68.84
64924;HTU21D;51436;44.692;39.214;2024-01-15T04:20:36;3.80;68.87
64924;HTU21D;51436;44.692;39.214;2024-01-15T04:23:03;3.80;68.91
64924;HTU21D;51436;44.692;39.214;2024-01-15T04:25:30;3.79;68.95
64924;HTU21D;51436;44.692;39.214;2024-01-15T04:27:56;3.78;68.99
64924;HTU21D;51436;44.692;39.214;2024-01-15T04:30:23;3.79;68.99
64924;HTU21D;51436;44.692;39.214;2024-01-15T04:32:49;3.79;68.99
64924;HTU21D;51436;44.692;39.214;2024-01-15T04:35:16;3.79;69.01
64924;HTU21D;51436;44.692;39.214;2024-01-15T04:37:42;3.77;69.07
64924;HTU21D;51436;44.692;39.214;2024-01-15T04:40:09;3.76;69.13
64924;HTU21D;51436;44.692;39.214;2024-01-15T04:42:36;3.74;69.20
64924;HTU21D;51436;44.692;39.214;2024-01-15T04:45:02;3.70;69.27
64924;HTU21D;51436;44.692;39.214;2024-01-15T04:48:12;3.67;69.31
64924;HTU21D;51436;44.692;39.214;2024-01-15T04:50:38;3.68;69.32
64924;HTU21D;51436;44.692;39.214;2024-01-15T04:53:04;3.65;69.35
64924;HTU21D;51436;44.692;39.214;2024-01-15T04:55:31;3.63;69.41
64924;HTU21D;51436;44.692;39.214;2024-01-15T04:57:59;3.59;69.46
64924;HTU21D;51436;44.692;39.214;2024-01-15T05:00:26;3.60;69.51
64924;HTU21D;51436;44.692;39.214;2024-01-15T05:02:52;3.60;69.51
64924;HTU21D;51436;44.692;39.214;2024-01-15T05:05:18;3.59;69.53
64924;HTU21D;51436;44.692;39.214;2024-01-15T05:07:45;3.56;69.61
64924;HTU21D;51436;44.692;39.214;2024-01-15T05:10:11;3.58;69.64
64924;HTU21D;51436;44.692;39.214;2024-01-15T05:12:38;3.58;69.64
64924;HTU21D;51436;44.692;39.214;2024-01-15T05:15:04;3.61;69.61
64924;HTU21D;51436;44.692;39.214;2024-01-15T05:17:31;3.62;69.54
64924;HTU21D;51436;44.692;39.214;2024-01-15T05:19:58;3.65;69.52
64924;HTU21D;51436;44.692;39.214;2024-01-15T05:22:24;3.69;69.50
64924;HTU21D;51436;44.692;39.214;2024-01-15T05:24:51;3.72;69.43
64924;HTU21D;51436;44.692;39.214;2024-01-15T05:27:17;3.76;69.39
64924;HTU21D;51436;44.692;39.214;2024-01-15T05:29:44;3.78;69.36
64924;HTU21D;51436;44.692;39.214;2024-01-15T05:32:10;3.83;69.30
64924;HTU21D;51436;44.692;39.214;2024-01-15T05:34:37;3.86;69.26
64924;HTU21D;51436;44.692;39.214;2024-01-15T05:37:03;3.86;69.26
64924;HTU21D;51436;44.692;39.214;2024-01-15T05:39:29;3.90;69.26
64924;HTU21D;51436;44.692;39.214;2024-01-15T05:41:56;3.92;69.24
64924;HTU21D;51436;44.692;39.214;2024-01-15T05:44:22;3.94;69.23
64924;HTU21D;51436;44.692;39.214;2024-01-15T05:46:48;3.98;69.23
64924;HTU21D;51436;44.692;39.214;2024-01-15T05:49:14;4.01;69.18
64924;HTU21D;51436;44.692;39.214;2024-01-15T05:51:41;4.07;69.14
64924;HTU21D;51436;44.692;39.214;2024-01-15T05:54:07;4.20;68.99
64924;HTU21D;51436;44.692;39.214;2024-01-15T05:56:33;4.33;68.67
64924;HTU21D;51436;44.692;39.214;2024-01-15T05:59:00;4.37;68.61
64924;HTU21D;51436;44.692;39.214;2024-01-15T06:01:26;4.41;68.61
64924;HTU21D;51436;44.692;39.214;2024-01-15T06:03:53;4.47;68.60
64924;HTU21D;51436;44.692;39.214;2024-01-15T06:06:19;4.54;68.49
64924;HTU21D;51436;44.692;39.214;2024-01-15T06:08:45;4.59;68.46
64924;HTU21D;51436;44.692;39.214;2024-01-15T06:11:12;4.68;68.36
64924;HTU21D;51436;44.692;39.214;2024-01-15T06:13:38;4.73;68.33
64924;HTU21D;51436;44.692;39.214;2024-01-15T06:16:14;4.75;68.30
64924;HTU21D;51436;44.692;39.214;2024-01-15T06:18:46;4.72;68.39
64924;HTU21D;51436;44.692;39.214;2024-01-15T06:21:12;4.73;68.46
64924;HTU21D;51436;44.692;39.214;2024-01-15T06:23:43;4.72;68.49
64924;HTU21D;51436;44.692;39.214;2024-01-15T06:26:12;4.71;68.56
64924;HTU21D;51436;44.692;39.214;2024-01-15T06:28:38;4.68;68.65
64924;HTU21D;51436;44.692;39.214;2024-01-15T06:31:06;4.72;68.65
64924;HTU21D;51436;44.692;39.214;2024-01-15T06:33:32;4.75;68.59
64924;HTU21D;51436;44.692;39.214;2024-01-15T06:35:59;4.75;68.57
64924;HTU21D;51436;44.692;39.214;2024-01-15T06:38:25;4.78;68.59
64924;HTU21D;51436;44.692;39.214;2024-01-15T06:40:52;4.81;68.55
64924;HTU21D;51436;44.692;39.214;2024-01-15T06:43:18;4.88;68.46
64924;HTU21D;51436;44.692;39.214;2024-01-15T06:45:44;4.91;68.39
64924;HTU21D;51436;44.692;39.214;2024-01-15T06:48:11;4.93;68.41
64924;HTU21D;51436;44.692;39.214;2024-01-15T06:50:40;4.96;68.39
64924;HTU21D;51436;44.692;39.214;2024-01-15T06:53:07;5.01;68.35
64924;HTU21D;51436;44.692;39.214;2024-01-15T06:55:33;5.06;68.27
64924;HTU21D;51436;44.692;39.214;2024-01-15T06:58:00;5.12;68.20
64924;HTU21D;51436;44.692;39.214;2024-01-15T07:00:26;5.18;68.13
64924;HTU21D;51436;44.692;39.214;2024-01-15T07:02:53;5.26;68.04
64924;HTU21D;51436;44.692;39.214;2024-01-15T07:05:21;5.36;67.89
64924;HTU21D;51436;44.692;39.214;2024-01-15T07:07:47;5.49;67.70
64924;HTU21D;51436;44.692;39.214;2024-01-15T07:10:14;5.61;67.53
64924;HTU21D;51436;44.692;39.214;2024-01-15T07:12:43;5.62;67.54
64924;HTU21D;51436;44.692;39.214;2024-01-15T07:15:10;5.62;67.61
64924;HTU21D;51436;44.692;39.214;2024-01-15T07:17:36;5.63;67.66
64924;HTU21D;51436;44.692;39.214;2024-01-15T07:20:07;5.67;67.64
64924;HTU21D;51436;44.692;39.214;2024-01-15T07:22:36;5.72;67.61
64924;HTU21D;51436;44.692;39.214;2024-01-15T07:25:04;5.71;67.65
64924;HTU21D;51436;44.692;39.214;2024-01-15T07:38:54;5.82;67.56
64924;HTU21D;51436;44.692;39.214;2024-01-15T07:41:20;5.87;67.58
64924;HTU21D;51436;44.692;39.214;2024-01-15T07:43:47;5.93;67.51
64924;HTU21D;51436;44.692;39.214;2024-01-15T07:46:13;6.01;67.39
64924;HTU21D;51436;44.692;39.214;2024-01-15T07:48:39;6.10;67.26
64924;HTU21D;51436;44.692;39.214;2024-01-15T07:51:06;6.17;67.15
64924;HTU21D;51436;44.692;39.214;2024-01-15T07:53:32;6.25;67.05
64924;HTU21D;51436;44.692;39.214;2024-01-15T07:56:02;6.35;66.95
64924;HTU21D;51436;44.692;39.214;2024-01-15T07:58:28;6.42;66.84
64924;HTU21D;51436;44.692;39.214;2024-01-15T08:00:54;6.50;66.76
64924;HTU21D;51436;44.692;39.214;2024-01-15T08:03:21;6.60;66.61
64924;HTU21D;51436;44.692;39.214;2024-01-15T08:05:47;6.70;66.50
64924;HTU21D;51436;44.692;39.214;2024-01-15T08:08:18;6.79;66.40
64924;HTU21D;51436;44.692;39.214;2024-01-15T08:10:44;6.82;66.37
64924;HTU21D;51436;44.692;39.214;2024-01-15T08:13:11;6.91;66.30
64924;HTU21D;51436;44.692;39.214;2024-01-15T08:15:37;7.01;66.16
64924;HTU21D;51436;44.692;39.214;2024-01-15T08:18:03;7.08;66.10
64924;HTU21D;51436;44.692;39.214;2024-01-15T08:20:30;7.16;66.01
64924;HTU21D;51436;44.692;39.214;2024-01-15T08:22:56;7.23;65.96
64924;HTU21D;51436;44.692;39.214;2024-01-15T08:25:23;7.33;65.86
64924;HTU21D;51436;44.692;39.214;2024-01-15T08:27:49;7.45;65.71
64924;HTU21D;51436;44.692;39.214;2024-01-15T08:30:16;7.59;65.54
64924;HTU21D;51436;44.692;39.214;2024-01-15T08:32:42;7.68;65.44
64924;HTU21D;51436;44.692;39.214;2024-01-15T08:35:09;7.75;65.38
64924;HTU21D;51436;44.692;39.214;2024-01-15T08:37:35;7.85;65.30
64924;HTU21D;51436;44.692;39.214;2024-01-15T08:40:03;7.93;65.21
64924;HTU21D;51436;44.692;39.214;2024-01-15T08:42:29;7.94;65.27
64924;HTU21D;51436;44.692;39.214;2024-01-15T08:44:56;7.99;65.31
64924;HTU21D;51436;44.692;39.214;2024-01-15T08:47:22;8.02;65.27
64924;HTU21D;51436;44.692;39.214;2024-01-15T08:49:48;8.04;65.27
64924;HTU21D;51436;44.692;39.214;2024-01-15T08:52:15;8.05;65.33
64924;HTU21D;51436;44.692;39.214;2024-01-15T08:54:41;8.03;65.39
64924;HTU21D;51436;44.692;39.214;2024-01-15T08:57:07;8.04;65.43
64924;HTU21D;51436;44.692;39.214;2024-01-15T08:59:34;8.05;65.43
64924;HTU21D;51436;44.692;39.214;2024-01-15T09:02:00;8.08;65.40
64924;HTU21D;51436;44.692;39.214;2024-01-15T09:04:27;8.13;65.35
64924;HTU21D;51436;44.692;39.214;2024-01-15T09:06:53;8.16;65.31
64924;HTU21D;51436;44.692;39.214;2024-01-15T09:09:19;8.17;65.30
64924;HTU21D;51436;44.692;39.214;2024-01-15T09:11:46;8.14;65.39
64924;HTU21D;51436;44.692;39.214;2024-01-15T09:14:13;8.17;65.37
64924;HTU21D;51436;44.692;39.214;2024-01-15T09:16:39;8.19;65.31
64924;HTU21D;51436;44.692;39.214;2024-01-15T09:19:05;8.09;65.46
64924;HTU21D;51436;44.692;39.214;2024-01-15T09:21:32;7.98;65.69
64924;HTU21D;51436;44.692;39.214;2024-01-15T09:23:58;7.89;65.85
64924;HTU21D;51436;44.692;39.214;2024-01-15T09:26:24;7.83;65.95
64924;HTU21D;51436;44.692;39.214;2024-01-15T09:28:52;7.73;66.09
64924;HTU21D;51436;44.692;39.214;2024-01-15T09:31:18;7.72;66.11
64924;HTU21D;51436;44.692;39.214;2024-01-15T09:33:50;7.81;65.92
64924;HTU21D;51436;44.692;39.214;2024-01-15T09:36:22;7.77;65.85
64924;HTU21D;51436;44.692;39.214;2024-01-15T09:38:49;7.72;65.97
64924;HTU21D;51436;44.692;39.214;2024-01-15T09:41:15;7.69;66.02
64924;HTU21D;51436;44.692;39.214;2024-01-15T09:43:42;7.63;66.06
64924;HTU21D;51436;44.692;39.214;2024-01-15T09:46:10;7.60;66.11
64924;HTU21D;51436;44.692;39.214;2024-01-15T09:48:36;7.59;66.14
64924;HTU21D;51436;44.692;39.214;2024-01-15T09:51:06;7.65;65.99
64924;HTU21D;51436;44.692;39.214;2024-01-15T09:53:34;7.74;65.81
64924;HTU21D;51436;44.692;39.214;2024-01-15T09:56:02;7.77;65.72
64924;HTU21D;51436;44.692;39.214;2024-01-15T09:58:29;7.84;65.62
64924;HTU21D;51436;44.692;39.214;2024-01-15T10:00:57;7.94;65.46
64924;HTU21D;51436;44.692;39.214;2024-01-15T10:03:27;8.05;65.27
64924;HTU21D;51436;44.692;39.214;2024-01-15T10:05:54;8.11;65.17
64924;HTU21D;51436;44.692;39.214;2024-01-15T10:08:28;8.15;65.11
64924;HTU21D;51436;44.692;39.214;2024-01-15T10:10:54;8.15;65.15
64924;HTU21D;51436;44.692;39.214;2024-01-15T10:13:21;8.18;65.13
64924;HTU21D;51436;44.692;39.214;2024-01-15T10:15:48;8.21;65.11
64924;HTU21D;51436;44.692;39.214;2024-01-15T10:18:15;8.21;65.08
64924;HTU21D;51436;44.692;39.214;2024-01-15T10:20:42;8.17;65.21
64924;HTU21D;51436;44.692;39.214;2024-01-15T10:23:08;8.18;65.24
64924;HTU21D;51436;44.692;39.214;2024-01-15T10:25:38;8.13;65.30
64924;HTU21D;51436;44.692;39.214;2024-01-15T10:28:04;8.05;65.48
64924;HTU21D;51436;44.692;39.214;2024-01-15T10:30:32;8.02;65.55
64924;HTU21D;51436;44.692;39.214;2024-01-15T10:33:00;8.02;65.54
64924;HTU21D;51436;44.692;39.214;2024-01-15T10:35:31;8.05;65.47
64924;HTU21D;51436;44.692;39.214;2024-01-15T10:38:02;8.13;65.31
64924;HTU21D;51436;44.692;39.214;2024-01-15T10:40:51;8.17;65.23
64924;HTU21D;51436;44.692;39.214;2024-01-15T10:43:28;8.16;65.24
64924;HTU21D;51436;44.692;39.214;2024-01-15T10:45:54;8.23;65.14
64924;HTU21D;51436;44.692;39.214;2024-01-15T10:48:24;8.36;64.93
64924;HTU21D;51436;44.692;39.214;2024-01-15T10:50:52;8.43;64.82
64924;HTU21D;51436;44.692;39.214;2024-01-15T10:53:19;8.47;64.77
64924;HTU21D;51436;44.692;39.214;2024-01-15T10:55:47;8.53;64.71
64924;HTU21D;51436;44.692;39.214;2024-01-15T10:58:18;8.62;64.62
64924;HTU21D;51436;44.692;39.214;2024-01-15T11:00:45;8.65;64.57
64924;HTU21D;51436;44.692;39.214;2024-01-15T11:03:11;8.66;64.61
64924;HTU21D;51436;44.692;39.214;2024-01-15T11:05:47;8.66;64.62
64924;HTU21D;51436;44.692;39.214;2024-01-15T11:19:48;8.70;64.63
64924;HTU21D;51436;44.692;39.214;2024-01-15T11:25:03;8.67;64.71
64924;HTU21D;51436;44.692;39.214;2024-01-15T11:28:01;8.70;64.63
64924;HTU21D;51436;44.692;39.214;2024-01-15T11:30:27;8.71;64.66
64924;HTU21D;51436;44.692;39.214;2024-01-15T11:32:56;8.68;64.69
64924;HTU21D;51436;44.692;39.214;2024-01-15T11:35:23;8.73;64.66
64924;HTU21D;51436;44.692;39.214;2024-01-15T11:38:11;8.78;64.54
64924;HTU21D;51436;44.692;39.214;2024-01-15T11:40:41;8.83;64.47
64924;HTU21D;51436;44.692;39.214;2024-01-15T11:43:09;8.88;64.40
64924;HTU21D;51436;44.692;39.214;2024-01-15T11:45:35;8.92;64.35
64924;HTU21D;51436;44.692;39.214;2024-01-15T11:50:40;8.96;64.28
64924;HTU21D;51436;44.692;39.214;2024-01-15T11:53:17;8.97;64.24
64924;HTU21D;51436;44.692;39.214;2024-01-15T11:55:46;8.96;64.28
64924;HTU21D;51436;44.692;39.214;2024-01-15T11:58:14;8.97;64.27
64924;HTU21D;51436;44.692;39.214;2024-01-15T12:00:48;9.00;64.24
64924;HTU21D;51436;44.692;39.214;2024-01-15T12:03:21;8.97;64.27
64924;HTU21D;51436;44.692;39.214;2024-01-15T12:05:48;8.95;64.32
64924;HTU21D;51436;44.692;39.214;2024-01-15T12:08:14;8.94;64.36
64924;HTU21D;51436;44.692;39.214;2024-01-15T12:10:41;8.94;64.33
64924;HTU21D;51436;44.692;39.214;2024-01-15T12:13:12;8.85;64.45
64924;HTU21D;51436;44.692;39.214;2024-01-15T12:15:43;8.85;64.52
64924;HTU21D;51436;44.692;39.214;2024-01-15T12:18:14;8.87;64.45
64924;HTU21D;51436;44.692;39.214;2024-01-15T12:20:41;8.83;64.45
64924;HTU21D;51436;44.692;39.214;2024-01-15T12:23:09;8.72;64.61
64924;HTU21D;51436;44.692;39.214;2024-01-15T12:25:36;8.67;64.75
64924;HTU21D;51436;44.692;39.214;2024-01-15T12:28:03;8.60;64.82
64924;HTU21D;51436;44.692;39.214;2024-01-15T12:30:32;8.50;64.95
64924;HTU21D;51436;44.692;39.214;2024-01-15T12:33:04;8.43;65.08
64924;HTU21D;51436;44.692;39.214;2024-01-15T12:35:31;8.38;65.11
64924;HTU21D;51436;44.692;39.214;2024-01-15T12:37:59;8.33;65.17
64924;HTU21D;51436;44.692;39.214;2024-01-15T12:40:26;8.30;65.21
64924;HTU21D;51436;44.692;39.214;2024-01-15T12:42:52;8.27;65.23
64924;HTU21D;51436;44.692;39.214;2024-01-15T12:45:19;8.19;65.28
64924;HTU21D;51436;44.692;39.214;2024-01-15T12:47:46;8.14;65.34
64924;HTU21D;51436;44.692;39.214;2024-01-15T12:50:13;8.12;65.37
64924;HTU21D;51436;44.692;39.214;2024-01-15T12:52:42;8.12;65.32
64924;HTU21D;51436;44.692;39.214;2024-01-15T12:55:09;8.12;65.26
64924;HTU21D;51436;44.692;39.214;2024-01-15T12:57:36;8.13;65.24
64924;HTU21D;51436;44.692;39.214;2024-01-15T13:00:06;8.08;65.24
64924;HTU21D;51436;44.692;39.214;2024-01-15T13:02:44;8.08;65.21
64924;HTU21D;51436;44.692;39.214;2024-01-15T13:05:11;8.06;65.22
64924;HTU21D;51436;44.692;39.214;2024-01-15T13:07:38;8.02;65.27
64924;HTU21D;51436;44.692;39.214;2024-01-15T13:10:05;8.01;65.28
64924;HTU21D;51436;44.692;39.214;2024-01-15T13:12:38;8.00;65.26
64924;HTU21D;51436;44.692;39.214;2024-01-15T13:15:09;7.99;65.23
64924;HTU21D;51436;44.692;39.214;2024-01-15T13:17:38;7.97;65.23
64924;HTU21D;51436;44.692;39.214;2024-01-15T13:20:08;7.93;65.27
64924;HTU21D;51436;44.692;39.214;2024-01-15T13:22:35;7.92;65.27
64924;HTU21D;51436;44.692;39.214;2024-01-15T13:25:02;7.92;65.24
64924;HTU21D;51436;44.692;39.214;2024-01-15T13:27:29;7.88;65.30
64924;HTU21D;51436;44.692;39.214;2024-01-15T13:29:56;7.85;65.33
64924;HTU21D;51436;44.692;39.214;2024-01-15T13:32:27;7.83;65.33
64924;HTU21D;51436;44.692;39.214;2024-01-15T13:35:17;7.81;65.31
64924;HTU21D;51436;44.692;39.214;2024-01-15T13:37:44;7.79;65.35
64924;HTU21D;51436;44.692;39.214;2024-01-15T13:40:10;7.81;65.30
64924;HTU21D;51436;44.692;39.214;2024-01-15T13:42:44;7.75;65.33
64924;HTU21D;51436;44.692;39.214;2024-01-15T13:45:11;7.71;65.41
64924;HTU21D;51436;44.692;39.214;2024-01-15T13:47:40;7.70;65.44
64924;HTU21D;51436;44.692;39.214;2024-01-15T13:50:09;7.68;65.42
64924;HTU21D;51436;44.692;39.214;2024-01-15T13:52:36;7.70;65.35
64924;HTU21D;51436;44.692;39.214;2024-01-15T13:55:05;7.72;65.24
64924;HTU21D;51436;44.692;39.214;2024-01-15T13:57:37;7.74;65.16
64924;HTU21D;51436;44.692;39.214;2024-01-15T14:00:04;7.74;65.11
64924;HTU21D;51436;44.692;39.214;2024-01-15T14:02:35;7.76;65.06
64924;HTU21D;51436;44.692;39.214;2024-01-15T14:05:02;7.75;65.05
64924;HTU21D;51436;44.692;39.214;2024-01-15T14:07:28;7.73;65.05
64924;HTU21D;51436;44.692;39.214;2024-01-15T14:09:54;7.72;65.07
64924;HTU21D;51436;44.692;39.214;2024-01-15T14:12:21;7.72;65.01
64924;HTU21D;51436;44.692;39.214;2024-01-15T14:14:47;7.73;64.93
64924;HTU21D;51436;44.692;39.214;2024-01-15T14:17:13;7.74;64.92
64924;HTU21D;51436;44.692;39.214;2024-01-15T14:19:40;7.74;64.87
64924;HTU21D;51436;44.692;39.214;2024-01-15T14:22:07;7.72;64.87
64924;HTU21D;51436;44.692;39.214;2024-01-15T14:24:34;7.69;64.93
64924;HTU21D;51436;44.692;39.214;2024-01-15T14:27:00;7.70;64.86
64924;HTU21D;51436;44.692;39.214;2024-01-15T14:29:29;7.75;64.72
64924;HTU21D;51436;44.692;39.214;2024-01-15T14:31:55;7.75;64.66
64924;HTU21D;51436;44.692;39.214;2024-01-15T14:34:21;7.74;64.63
64924;HTU21D;51436;44.692;39.214;2024-01-15T14:36:54;7.73;64.63
64924;HTU21D;51436;44.692;39.214;2024-01-15T14:39:21;7.75;64.56
64924;HTU21D;51436;44.692;39.214;2024-01-15T14:41:48;7.78;64.48
64924;HTU21D;51436;44.692;39.214;2024-01-15T14:44:14;7.79;64.43
64924;HTU21D;51436;44.692;39.214;2024-01-15T14:57:44;7.65;64.39
64924;HTU21D;51436;44.692;39.214;2024-01-15T15:00:11;7.65;64.40
64924;HTU21D;51436;44.692;39.214;2024-01-15T15:02:39;7.64;64.40
64924;HTU21D;51436;44.692;39.214;2024-01-15T15:05:06;7.65;64.35
64924;HTU21D;51436;44.692;39.214;2024-01-15T15:07:32;7.69;64.25
64924;HTU21D;51436;44.692;39.214;2024-01-15T15:10:22;7.69;64.21
64924;HTU21D;51436;44.692;39.214;2024-01-15T15:12:48;7.69;64.19
64924;HTU21D;51436;44.692;39.214;2024-01-15T15:15:15;7.67;64.21
64924;HTU21D;51436;44.692;39.214;2024-01-15T15:17:42;7.67;64.21
64924;HTU21D;51436;44.692;39.214;2024-01-15T15:20:12;7.60;64.27
64924;HTU21D;51436;44.692;39.214;2024-01-15T15:22:38;7.58;64.34
64924;HTU21D;51436;44.692;39.214;2024-01-15T15:25:05;7.52;64.40
64924;HTU21D;51436;44.692;39.214;2024-01-15T15:27:35;7.52;64.34
64924;HTU21D;51436;44.692;39.214;2024-01-15T15:30:01;7.50;64.31
64924;HTU21D;51436;44.692;39.214;2024-01-15T15:32:28;7.48;64.37
64924;HTU21D;51436;44.692;39.214;2024-01-15T15:34:54;7.46;64.39
64924;HTU21D;51436;44.692;39.214;2024-01-15T15:37:20;7.49;64.30
64924;HTU21D;51436;44.692;39.214;2024-01-15T15:39:47;7.48;64.25
64924;HTU21D;51436;44.692;39.214;2024-01-15T15:42:16;7.46;64.27
64924;HTU21D;51436;44.692;39.214;2024-01-15T15:44:42;7.49;64.26
64924;HTU21D;51436;44.692;39.214;2024-01-15T15:47:12;7.53;64.18
64924;HTU21D;51436;44.692;39.214;2024-01-15T15:49:41;7.53;64.15
64924;HTU21D;51436;44.692;39.214;2024-01-15T15:52:08;7.53;64.15
64924;HTU21D;51436;44.692;39.214;2024-01-15T15:54:34;7.49;64.19
64924;HTU21D;51436;44.692;39.214;2024-01-15T15:57:01;7.55;64.11
64924;HTU21D;51436;44.692;39.214;2024-01-15T15:59:27;7.55;64.09
64924;HTU21D;51436;44.692;39.214;2024-01-15T16:01:53;7.56;64.08
64924;HTU21D;51436;44.692;39.214;2024-01-15T16:04:20;7.55;64.11
64924;HTU21D;51436;44.692;39.214;2024-01-15T16:06:46;7.52;64.17
64924;HTU21D;51436;44.692;39.214;2024-01-15T16:09:13;7.52;64.17
64924;HTU21D;51436;44.692;39.214;2024-01-15T16:11:40;7.52;64.16
64924;HTU21D;51436;44.692;39.214;2024-01-15T16:14:06;7.53;64.13
64924;HTU21D;51436;44.692;39.214;2024-01-15T16:16:33;7.58;63.98
64924;HTU21D;51436;44.692;39.214;2024-01-15T16:19:00;7.56;64.01
64924;HTU21D;51436;44.692;39.214;2024-01-15T16:21:26;7.53;64.10